createdAt,value
2022-10-18T00:01:59.724Z,98704.03
2022-10-18T00:07:00.965Z,98703.16
2022-10-18T00:12:02.207Z,98699.59
2022-10-18T00:17:03.406Z,98709.78
2022-10-18T00:22:04.618Z,98712.94
2022-10-18T00:27:05.842Z,98713.19
2022-10-18T00:32:07.131Z,98706.53
2022-10-18T00:37:08.400Z,98706.88
2022-10-18T00:42:09.874Z,98709.63
2022-10-18T00:47:11.191Z,98707.78
2022-10-18T00:52:12.389Z,98697.03
2022-10-18T00:57:13.579Z,98702.97
2022-10-18T01:02:18.100Z,98702.03
2022-10-18T01:07:19.298Z,98704.19
2022-10-18T01:12:20.539Z,98701.03
2022-10-18T01:17:21.822Z,98707.28
2022-10-18T01:22:23.104Z,98707.78
2022-10-18T01:27:24.518Z,98695.50
2022-10-18T01:32:25.727Z,98699.66
2022-10-18T01:37:26.961Z,98706.19
2022-10-18T01:42:28.448Z,98705.28
2022-10-18T01:47:29.992Z,98694.88
2022-10-18T01:52:31.867Z,98688.66
2022-10-18T01:57:33.245Z,98684.44
2022-10-18T02:02:34.574Z,98683.69
2022-10-18T02:07:35.835Z,98688.00
2022-10-18T02:12:37.051Z,98687.88
2022-10-18T02:17:38.245Z,98689.72
2022-10-18T02:22:40.854Z,98692.00
2022-10-18T02:27:42.066Z,98692.19
2022-10-18T02:32:43.267Z,98689.94
2022-10-18T02:37:44.552Z,98690.06
2022-10-18T02:42:45.810Z,98693.50
2022-10-18T02:47:47.026Z,98689.34
2022-10-18T02:52:48.229Z,98681.69
2022-10-18T02:57:49.472Z,98682.47
2022-10-18T03:02:50.743Z,98691.22
2022-10-18T03:07:51.962Z,98699.28
2022-10-18T03:12:53.257Z,98696.91
2022-10-18T03:17:54.446Z,98699.53
2022-10-18T03:22:55.648Z,98694.44
2022-10-18T03:27:56.868Z,98701.28
2022-10-18T03:32:58.087Z,98700.00
2022-10-18T03:37:59.290Z,98709.47
2022-10-18T03:43:00.625Z,98711.34
2022-10-18T03:48:01.905Z,98712.22
2022-10-18T03:53:03.103Z,98705.28
2022-10-18T03:58:04.323Z,98705.44
2022-10-18T04:03:05.527Z,98700.22
2022-10-18T04:08:06.733Z,98704.09
2022-10-18T04:13:07.923Z,98701.78
2022-10-18T04:18:09.126Z,98698.94
2022-10-18T04:23:10.351Z,98704.22
2022-10-18T04:28:11.574Z,98705.16
2022-10-18T04:33:12.781Z,98706.75
2022-10-18T04:38:14.738Z,98697.53
2022-10-18T04:43:15.967Z,98702.53
2022-10-18T04:48:17.197Z,98700.09
2022-10-18T04:53:18.441Z,98705.66
2022-10-18T04:58:19.646Z,98703.31
2022-10-18T05:03:20.878Z,98713.50
2022-10-18T05:08:22.091Z,98704.69
2022-10-18T05:13:23.294Z,98703.22
2022-10-18T05:18:24.513Z,98704.13
2022-10-18T05:23:25.772Z,98699.19
2022-10-18T05:28:39.213Z,98706.66
2022-10-18T05:33:41.624Z,98718.94
2022-10-18T05:38:43.167Z,98696.31
2022-10-18T05:43:44.702Z,98702.13
2022-10-18T05:48:45.895Z,98707.66
2022-10-18T05:53:47.154Z,98708.50
2022-10-18T05:58:48.376Z,98710.41
2022-10-18T06:03:49.616Z,98713.50
2022-10-18T06:08:51.034Z,98715.13
2022-10-18T06:13:52.272Z,98715.44
2022-10-18T06:18:53.482Z,98723.00
2022-10-18T06:23:54.781Z,98726.69
2022-10-18T06:28:56.205Z,98736.41
2022-10-18T06:34:01.107Z,98744.78
2022-10-18T06:39:02.697Z,98738.44
2022-10-18T06:44:13.404Z,98756.22
2022-10-18T06:49:16.737Z,98762.97
2022-10-18T06:54:20.411Z,98761.34
2022-10-18T06:59:21.623Z,98771.16
2022-10-18T07:04:22.821Z,98779.06
2022-10-18T07:09:24.023Z,98782.31
2022-10-18T07:14:28.913Z,98766.50
2022-10-18T07:19:30.431Z,98775.81
2022-10-18T07:29:38.804Z,98764.47
2022-10-18T07:34:40.035Z,98762.41
2022-10-18T07:39:41.244Z,98767.00
2022-10-18T07:44:42.481Z,98758.31
2022-10-18T07:49:43.683Z,98750.47
2022-10-18T07:54:44.910Z,98752.22
2022-10-18T07:59:48.064Z,98740.28
2022-10-18T08:04:49.271Z,98730.44
2022-10-18T08:09:50.544Z,98710.34
2022-10-18T08:14:51.864Z,98694.00
2022-10-18T08:20:05.008Z,98708.19
2022-10-18T08:25:13.882Z,98730.50
2022-10-18T08:30:15.090Z,98737.34
2022-10-18T08:35:16.358Z,98742.00
2022-10-18T08:40:17.558Z,98745.13
2022-10-18T08:45:30.526Z,98744.84
2022-10-18T08:50:40.029Z,98729.72
2022-10-18T08:55:41.240Z,98736.63
2022-10-18T09:00:42.463Z,98734.22
2022-10-18T09:05:43.686Z,98741.38
2022-10-18T09:10:45.722Z,98734.59
2022-10-18T09:15:46.969Z,98736.72
2022-10-18T09:20:48.198Z,98736.59
2022-10-18T09:25:49.460Z,98746.94
2022-10-18T09:30:50.738Z,98744.41
2022-10-18T09:35:51.982Z,98740.66
2022-10-18T09:40:53.213Z,98724.94
2022-10-18T09:45:54.583Z,98736.97
2022-10-18T09:50:55.908Z,98743.66
2022-10-18T09:55:57.587Z,98740.97
2022-10-18T10:00:58.903Z,98736.25
2022-10-18T10:06:00.254Z,98739.03
2022-10-18T10:11:01.485Z,98740.06
2022-10-18T10:16:02.737Z,98726.22
2022-10-18T10:21:04.023Z,98713.81
2022-10-18T10:26:05.269Z,98713.97
2022-10-18T10:31:06.551Z,98709.91
2022-10-18T10:36:07.848Z,98708.38
2022-10-18T10:41:09.090Z,98688.31
2022-10-18T10:46:10.453Z,98682.78
2022-10-18T10:51:11.784Z,98673.25
2022-10-18T10:56:15.871Z,98669.97
2022-10-18T11:01:17.349Z,98655.34
2022-10-18T11:06:18.676Z,98637.09
2022-10-18T11:11:22.937Z,98632.03
2022-10-18T11:16:24.692Z,98616.69
2022-10-18T11:21:26.120Z,98598.50
2022-10-18T11:26:27.997Z,98595.03
2022-10-18T11:31:31.666Z,98578.38
2022-10-18T11:36:35.184Z,98568.50
2022-10-18T11:41:39.849Z,98556.06
2022-10-18T11:46:41.248Z,98551.59
2022-10-18T11:52:06.828Z,98544.00
2022-10-18T11:57:03.987Z,98544.72
2022-10-18T12:02:05.363Z,98531.84
2022-10-18T12:07:06.811Z,98522.66
2022-10-18T12:12:13.316Z,98515.75
2022-10-18T12:17:40.743Z,98517.75
2022-10-18T12:22:35.986Z,98510.38
2022-10-18T12:27:37.293Z,98503.72
2022-10-18T12:32:38.608Z,98516.09
2022-10-18T12:37:39.865Z,98514.28
2022-10-18T12:42:41.803Z,98504.50
2022-10-18T12:47:43.148Z,98510.56
2022-10-18T12:52:44.414Z,98499.22
2022-10-18T12:57:45.720Z,98499.81
2022-10-18T13:02:46.927Z,98490.47
2022-10-18T13:07:48.163Z,98478.47
2022-10-18T13:12:49.415Z,98495.28
2022-10-18T13:17:50.751Z,98501.22
2022-10-18T13:22:52.353Z,98507.28
2022-10-18T13:27:53.996Z,98521.13
2022-10-18T13:32:55.571Z,98547.47
2022-10-18T13:37:58.819Z,98543.78
2022-10-18T13:43:00.126Z,98558.31
2022-10-18T13:48:02.366Z,98565.50
2022-10-18T13:53:04.297Z,98565.09
2022-10-18T13:58:05.778Z,98583.56
2022-10-18T14:13:49.026Z,98571.88
2022-10-18T14:18:50.281Z,98577.66
2022-10-18T14:23:51.541Z,98561.81
2022-10-18T14:29:00.106Z,98562.72
2022-10-18T14:34:01.734Z,98560.00
2022-10-18T14:39:02.988Z,98571.16
2022-10-18T14:44:04.340Z,98587.97
2022-10-18T14:49:06.635Z,98582.75
2022-10-18T14:54:08.246Z,98573.78
2022-10-18T14:59:09.510Z,98569.63
2022-10-18T15:04:10.801Z,98581.09
2022-10-18T15:09:12.063Z,98582.84
2022-10-18T15:14:13.404Z,98574.97
2022-10-18T15:19:16.639Z,98565.41
2022-10-18T15:24:17.902Z,98568.13
2022-10-18T15:29:22.969Z,98566.03
2022-10-18T15:34:24.417Z,98559.31
2022-10-18T15:39:26.072Z,98557.41
2022-10-18T15:44:28.124Z,98551.41
2022-10-18T15:49:29.407Z,98557.94
2022-10-18T15:54:30.767Z,98553.50
2022-10-18T15:59:34.547Z,98550.88
2022-10-18T16:04:35.755Z,98561.19
2022-10-18T16:09:36.968Z,98565.22
2022-10-18T16:14:38.219Z,98566.22
2022-10-18T16:19:39.456Z,98582.78
2022-10-18T16:24:40.797Z,98586.13
2022-10-18T16:29:41.983Z,98595.78
2022-10-18T16:34:43.204Z,98609.84
2022-10-18T16:39:44.431Z,98601.63
2022-10-18T16:44:46.771Z,98623.56
2022-10-18T16:49:48.070Z,98626.31
2022-10-18T16:54:49.341Z,98631.94
2022-10-18T16:59:50.538Z,98641.47
2022-10-18T17:04:51.793Z,98656.59
2022-10-18T17:09:53.036Z,98661.13
2022-10-18T17:14:54.316Z,98662.53
2022-10-18T17:19:55.931Z,98665.53
2022-10-18T17:24:57.214Z,98661.81
2022-10-18T17:29:58.431Z,98661.47
2022-10-18T17:34:59.690Z,98664.13
2022-10-18T17:40:00.941Z,98672.72
2022-10-18T17:45:02.148Z,98682.97
2022-10-18T17:50:03.378Z,98689.91
2022-10-18T17:55:04.595Z,98691.88
2022-10-18T18:00:07.475Z,98703.19
2022-10-18T18:05:09.186Z,98706.28
2022-10-18T18:10:10.427Z,98714.53
2022-10-18T18:15:11.725Z,98717.16
2022-10-18T18:20:13.013Z,98709.53
2022-10-18T18:25:14.350Z,98711.69
2022-10-18T18:30:17.704Z,98714.72
2022-10-18T18:35:19.022Z,98703.66
2022-10-18T18:40:20.623Z,98701.69
2022-10-18T18:45:21.864Z,98700.91
2022-10-18T18:50:23.131Z,98709.56
2022-10-18T18:55:24.371Z,98710.44
2022-10-18T19:00:25.614Z,98715.31
2022-10-18T19:05:28.096Z,98723.75
2022-10-18T19:10:29.354Z,98718.28
2022-10-18T19:15:30.583Z,98723.56
2022-10-18T19:20:31.911Z,98722.81
2022-10-18T19:25:33.163Z,98724.75
2022-10-18T19:30:34.437Z,98716.22
2022-10-18T19:35:35.795Z,98719.03
2022-10-18T19:40:37.027Z,98710.28
2022-10-18T19:45:38.256Z,98711.00
2022-10-18T19:50:39.587Z,98721.56
2022-10-18T19:55:40.884Z,98719.16
2022-10-18T20:00:42.113Z,98720.66
2022-10-18T20:05:43.358Z,98715.75
2022-10-18T20:10:44.564Z,98718.56
2022-10-18T20:15:45.776Z,98717.53
2022-10-18T20:20:48.192Z,98712.13
2022-10-18T20:25:51.758Z,98710.00
2022-10-18T20:30:52.984Z,98706.88
2022-10-18T20:35:58.147Z,98715.25
2022-10-18T20:40:59.377Z,98719.59
2022-10-18T20:46:00.591Z,98717.53
2022-10-18T20:51:01.927Z,98718.50
2022-10-18T20:56:03.252Z,98726.88
2022-10-18T21:01:04.511Z,98730.16
2022-10-18T21:06:05.756Z,98731.25
2022-10-18T21:11:07.088Z,98724.16
2022-10-18T21:16:08.580Z,98733.78
2022-10-18T21:21:09.977Z,98732.78
2022-10-18T21:26:11.281Z,98721.81
2022-10-18T21:31:12.869Z,98718.94
2022-10-18T21:36:14.204Z,98723.34
2022-10-18T21:41:15.498Z,98716.28
2022-10-18T21:46:16.738Z,98714.50
2022-10-18T21:51:17.982Z,98708.00
2022-10-18T21:56:19.202Z,98707.84
2022-10-18T22:01:20.578Z,98711.66
2022-10-18T22:06:21.917Z,98710.84
2022-10-18T22:11:23.194Z,98713.94
2022-10-18T22:16:24.448Z,98708.59
2022-10-18T22:21:25.743Z,98714.06
2022-10-18T22:26:26.996Z,98699.75
2022-10-18T22:31:28.366Z,98691.06
2022-10-18T22:36:29.594Z,98689.50
2022-10-18T22:41:30.814Z,98704.41
2022-10-18T22:46:32.536Z,98698.59
2022-10-18T22:56:39.860Z,98678.09
2022-10-18T23:01:41.089Z,98684.25
2022-10-18T23:06:42.355Z,98680.19
2022-10-18T23:11:43.671Z,98667.53
2022-10-18T23:16:45.100Z,98674.72
2022-10-18T23:21:46.443Z,98671.53
2022-10-18T23:26:47.741Z,98670.56
2022-10-18T23:31:48.968Z,98678.22
2022-10-18T23:36:50.241Z,98677.44
2022-10-18T23:41:51.489Z,98673.78
2022-10-18T23:46:52.970Z,98673.03
2022-10-18T23:51:54.266Z,98676.22
2022-10-18T23:56:55.565Z,98680.09
